Time;durP1;ratioP1;P1;durP2;ratioP2;P2;SDS_P1;SDS_P2;PMS_P1;PMS_P2;Temp;Humidity;BMP_temperature;BMP_pressure;BME280_temperature;BME280_humidity;BME280_pressure;Samples;Min_cycle;Max_cycle;Signal;HPM_P1;HPM_P2
2021/06/03 00:01:39;;;;;;;5.53;5.13;;;19.50;41.60;;;;;;6152778;22;20474;-89
2021/06/03 00:04:05;;;;;;;5.27;4.97;;;19.40;42.00;;;;;;6152615;23;20141;-89
2021/06/03 00:06:31;;;;;;;5.30;4.80;;;19.40;42.00;;;;;;6152616;23;20179;-89
2021/06/03 00:08:56;;;;;;;5.00;4.40;;;19.30;42.30;;;;;;6152869;23;20380;-89
2021/06/03 00:11:22;;;;;;;5.67;5.27;;;19.30;42.00;;;;;;6152640;23;20218;-89
2021/06/03 00:13:49;;;;;;;5.37;4.87;;;19.30;42.20;;;;;;6152405;23;20587;-89
2021/06/03 00:16:16;;;;;;;4.80;4.40;;;19.20;41.80;;;;;;6152922;23;20163;-89
2021/06/03 00:18:44;;;;;;;5.63;5.13;;;19.20;41.30;;;;;;6152785;23;20422;-89
2021/06/03 00:21:10;;;;;;;4.40;4.00;;;19.10;41.20;;;;;;6152750;23;20380;-89
2021/06/03 00:23:36;;;;;;;5.70;4.63;;;19.10;41.50;;;;;;6152771;23;20842;-89
2021/06/03 00:26:03;;;;;;;4.93;4.43;;;19.00;41.60;;;;;;6152793;23;20427;-89
2021/06/03 00:28:28;;;;;;;5.97;5.57;;;19.00;41.60;;;;;;6152754;23;20152;-88
2021/06/03 00:30:55;;;;;;;5.70;5.30;;;18.80;41.60;;;;;;6152675;23;20466;-89
2021/06/03 00:33:20;;;;;;;5.43;5.00;;;18.80;42.60;;;;;;6152600;23;20163;-89
2021/06/03 00:35:46;;;;;;;5.13;4.63;;;19.10;42.90;;;;;;6152461;23;20379;-89
2021/06/03 00:38:12;;;;;;;5.03;4.53;;;19.00;43.10;;;;;;6152522;23;20151;-89
2021/06/03 00:40:38;;;;;;;5.53;4.60;;;19.00;43.40;;;;;;6152272;23;20151;-89
2021/06/03 00:43:06;;;;;;;4.20;3.90;;;18.90;42.50;;;;;;6152585;23;20380;-89
2021/06/03 00:45:34;;;;;;;4.30;3.90;;;19.10;42.20;;;;;;6152496;23;20415;-89
2021/06/03 00:48:00;;;;;;;5.40;4.90;;;18.90;41.60;;;;;;6152242;23;20437;-89
2021/06/03 00:50:32;;;;;;;4.17;3.77;;;19.10;42.00;;;;;;6152181;23;20384;-89
2021/06/03 00:52:59;;;;;;;5.53;5.10;;;18.90;41.60;;;;;;6152241;23;20470;-89
2021/06/03 00:55:25;;;;;;;5.50;5.00;;;18.90;43.30;;;;;;6152103;23;20383;-89
2021/06/03 00:57:51;;;;;;;5.27;4.87;;;18.80;43.70;;;;;;6152848;23;20466;-90
2021/06/03 01:00:19;;;;;;;5.33;5.03;;;18.80;43.40;;;;;;6152897;23;20152;-89
2021/06/03 01:02:45;;;;;;;4.67;4.37;;;19.10;42.70;;;;;;6152519;23;20152;-89
2021/06/03 01:05:19;;;;;;;4.67;4.23;;;18.70;42.20;;;;;;6152356;23;20749;-89
2021/06/03 01:07:44;;;;;;;4.87;4.50;;;18.80;42.10;;;;;;6152560;23;20877;-89
2021/06/03 01:10:11;;;;;;;4.90;4.50;;;18.60;41.90;;;;;;6151839;23;20460;-88
2021/06/03 01:13:07;;;;;;;5.37;4.97;;;18.60;41.90;;;;;;6152454;23;20158;-89
2021/06/03 01:15:33;;;;;;;6.70;6.10;;;18.60;42.10;;;;;;6152029;23;20866;-88
2021/06/03 01:18:02;;;;;;;6.00;5.50;;;18.60;44.00;;;;;;6152342;23;20714;-88
2021/06/03 01:20:28;;;;;;;6.07;5.50;;;18.60;44.90;;;;;;6152673;23;20388;-89
2021/06/03 01:23:17;;;;;;;5.93;5.00;;;18.50;43.60;;;;;;6152798;23;20383;-90
2021/06/03 01:25:45;;;;;;;5.10;4.70;;;18.70;43.30;;;;;;6152519;22;20434;-89
2021/06/03 01:28:12;;;;;;;4.90;4.57;;;18.80;43.40;;;;;;6152379;23;20388;-90
2021/06/03 01:30:50;;;;;;;4.10;3.80;;;18.40;43.10;;;;;;6152191;23;20432;-90
2021/06/03 01:33:20;;;;;;;4.80;4.50;;;18.30;43.10;;;;;;6152234;23;20379;-89
2021/06/03 01:35:50;;;;;;;5.30;4.90;;;18.40;43.20;;;;;;6152245;23;20865;-89
2021/06/03 01:38:19;;;;;;;5.10;4.70;;;18.40;43.20;;;;;;6152169;23;20857;-89
2021/06/03 01:40:47;;;;;;;5.37;4.87;;;18.40;43.10;;;;;;6152326;23;20384;-90
2021/06/03 01:43:17;;;;;;;4.67;4.17;;;18.30;43.00;;;;;;6152941;23;20417;-89
2021/06/03 01:45:43;;;;;;;4.40;4.10;;;18.30;43.10;;;;;;6151823;23;20423;-89
2021/06/03 01:48:12;;;;;;;4.77;4.40;;;18.40;42.90;;;;;;6151522;23;20383;-89
2021/06/03 01:50:40;;;;;;;5.80;4.30;;;18.40;42.90;;;;;;6152836;23;20367;-89
2021/06/03 01:53:07;;;;;;;5.30;4.90;;;18.40;42.70;;;;;;6152040;23;20372;-89
2021/06/03 01:55:34;;;;;;;4.00;3.70;;;18.40;42.60;;;;;;6152320;23;20407;-90
2021/06/03 01:58:01;;;;;;;5.43;4.57;;;18.50;42.60;;;;;;6152439;23;20379;-89
2021/06/03 02:00:28;;;;;;;4.40;4.00;;;18.60;42.40;;;;;;6152112;23;20771;-89
2021/06/03 02:02:54;;;;;;;5.67;4.60;;;18.70;42.40;;;;;;6153510;23;20386;-90
2021/06/03 02:05:20;;;;;;;4.63;4.23;;;18.50;42.10;;;;;;6157212;23;20523;-89
2021/06/03 02:07:46;;;;;;;4.97;4.20;;;18.40;42.10;;;;;;6153207;23;20144;-89
2021/06/03 02:10:14;;;;;;;4.27;3.97;;;18.50;42.10;;;;;;6153221;23;20423;-90
2021/06/03 02:13:06;;;;;;;4.93;3.97;;;18.50;42.10;;;;;;6152790;23;20151;-89
2021/06/03 02:15:37;;;;;;;4.37;4.07;;;18.60;42.10;;;;;;6109063;23;20395;-89
2021/06/03 02:18:08;;;;;;;4.97;4.57;;;18.60;42.00;;;;;;6153297;23;20860;-88
2021/06/03 02:20:37;;;;;;;5.80;5.30;;;18.40;42.30;;;;;;6153097;23;20384;-89
2021/06/03 02:23:04;;;;;;;6.10;5.60;;;18.60;44.60;;;;;;6153344;23;20391;-90
2021/06/03 02:25:31;;;;;;;6.67;6.17;;;18.60;44.80;;;;;;6153342;23;20889;-88
2021/06/03 02:27:57;;;;;;;6.20;5.70;;;18.60;44.80;;;;;;6152909;23;20462;-89
2021/06/03 02:30:24;;;;;;;5.60;5.10;;;18.50;44.80;;;;;;6152956;23;20474;-90
2021/06/03 02:32:52;;;;;;;5.90;5.40;;;18.70;44.70;;;;;;6153017;23;20470;-91
2021/06/03 02:35:21;;;;;;;5.87;5.47;;;18.70;44.80;;;;;;6151661;22;20483;-90
2021/06/03 02:37:47;;;;;;;5.90;5.47;;;18.60;44.70;;;;;;6258704;22;20387;-89
2021/06/03 02:42:49;;;;;;;5.40;5.00;;;18.80;44.10;;;;;;6178019;22;20540;-90
2021/06/03 02:50:12;;;;;;;4.93;4.63;;;18.70;42.60;;;;;;6158028;22;20943;-89
2021/06/03 02:52:41;;;;;;;5.00;4.70;;;18.80;42.50;;;;;;6255982;22;20249;-89
2021/06/03 02:55:10;;;;;;;4.30;4.00;;;18.90;42.50;;;;;;6280269;22;20511;-88
2021/06/03 02:57:36;;;;;;;4.80;4.33;;;18.80;42.40;;;;;;6225882;22;20469;-89
2021/06/03 03:00:14;;;;;;;5.20;4.80;;;18.80;42.50;;;;;;6158456;23;20382;-90
2021/06/03 03:02:39;;;;;;;4.63;4.23;;;18.80;42.80;;;;;;6158408;23;20147;-89
2021/06/03 03:05:10;;;;;;;4.83;4.43;;;18.70;42.80;;;;;;6158441;23;20420;-91
2021/06/03 03:07:37;;;;;;;5.43;4.93;;;18.80;42.80;;;;;;6158026;23;20149;-89
2021/06/03 03:10:07;;;;;;;4.80;4.40;;;18.80;42.90;;;;;;6158522;23;20385;-89
2021/06/03 03:12:33;;;;;;;5.10;4.60;;;18.70;42.60;;;;;;6158355;22;20769;-88
2021/06/03 03:14:59;;;;;;;4.63;4.33;;;18.80;42.70;;;;;;6158593;23;20440;-90
2021/06/03 03:17:25;;;;;;;4.77;4.43;;;18.60;42.40;;;;;;6158394;23;20370;-89
2021/06/03 03:19:51;;;;;;;6.40;4.47;;;18.50;42.50;;;;;;6158290;23;20382;-90
2021/06/03 03:22:16;;;;;;;4.37;4.07;;;18.60;42.50;;;;;;6158450;23;20151;-89
2021/06/03 03:24:43;;;;;;;4.93;4.63;;;18.50;42.50;;;;;;6158398;23;20262;-89
2021/06/03 03:27:09;;;;;;;4.57;4.20;;;19.10;42.90;;;;;;6158380;23;20635;-89
2021/06/03 03:29:35;;;;;;;4.87;4.57;;;18.90;42.50;;;;;;6158493;23;20453;-89
2021/06/03 03:32:00;;;;;;;4.70;4.30;;;18.80;42.30;;;;;;6158306;23;20157;-89
2021/06/03 03:34:27;;;;;;;4.70;4.30;;;18.90;42.50;;;;;;6158569;23;20147;-89
2021/06/03 03:36:53;;;;;;;5.67;5.27;;;18.80;42.40;;;;;;6158366;23;20577;-89
2021/06/03 03:39:18;;;;;;;4.70;4.30;;;19.10;42.70;;;;;;6159143;23;20383;-89
2021/06/03 03:41:44;;;;;;;5.10;4.80;;;18.90;42.40;;;;;;6184083;23;20131;-89
2021/06/03 03:44:10;;;;;;;4.60;4.30;;;18.90;42.20;;;;;;6158293;23;20148;-89
2021/06/03 03:46:36;;;;;;;6.10;5.60;;;18.80;42.50;;;;;;6158369;23;20551;-89
2021/06/03 03:49:02;;;;;;;4.60;3.97;;;18.90;42.60;;;;;;6158266;23;20436;-89
2021/06/03 03:51:28;;;;;;;4.03;3.73;;;18.90;42.50;;;;;;6158080;23;20432;-89
2021/06/03 03:53:54;;;;;;;5.10;4.70;;;18.90;42.50;;;;;;6158872;23;20409;-89
2021/06/03 03:56:20;;;;;;;4.73;4.43;;;18.90;42.20;;;;;;6158526;23;20386;-90
2021/06/03 03:58:48;;;;;;;5.20;4.80;;;19.00;42.10;;;;;;6153668;23;20431;-89
2021/06/03 04:01:14;;;;;;;5.70;5.30;;;19.00;42.10;;;;;;6153577;23;20445;-89
2021/06/03 04:03:41;;;;;;;6.70;6.20;;;19.00;44.30;;;;;;6153399;23;20490;-89
2021/06/03 04:06:20;;;;;;;6.50;6.00;;;19.00;44.60;;;;;;6153110;23;20419;-89
2021/06/03 04:08:45;;;;;;;5.47;5.07;;;19.00;44.50;;;;;;6152964;23;20399;-89
2021/06/03 04:11:11;;;;;;;6.43;5.83;;;18.90;44.30;;;;;;6153841;23;20350;-89
2021/06/03 04:13:37;;;;;;;6.40;4.67;;;19.00;44.40;;;;;;6153186;23;20191;-89
2021/06/03 04:16:03;;;;;;;4.93;4.63;;;19.10;44.00;;;;;;6153086;23;20238;-89
2021/06/03 04:18:29;;;;;;;5.17;4.77;;;18.90;43.40;;;;;;6153072;23;20152;-88
2021/06/03 04:20:55;;;;;;;5.27;4.87;;;18.90;43.30;;;;;;6155042;23;20394;-89
2021/06/03 04:23:21;;;;;;;5.30;4.90;;;19.00;43.10;;;;;;6152792;23;20395;-89
2021/06/03 04:25:47;;;;;;;4.40;4.10;;;18.80;42.80;;;;;;6152429;23;20238;-89
2021/06/03 04:28:15;;;;;;;5.40;4.93;;;19.10;43.10;;;;;;6153683;23;20154;-89
2021/06/03 04:30:42;;;;;;;4.50;4.10;;;19.20;42.90;;;;;;6153061;23;20144;-90
2021/06/03 04:33:10;;;;;;;4.97;4.57;;;19.30;42.70;;;;;;6153392;23;20713;-89
2021/06/03 04:35:36;;;;;;;4.83;4.43;;;19.20;42.60;;;;;;6153225;23;20440;-89
2021/06/03 04:38:04;;;;;;;5.50;5.10;;;19.40;42.60;;;;;;6153350;23;20353;-89
2021/06/03 04:40:30;;;;;;;4.87;4.47;;;19.60;42.60;;;;;;6153655;23;20445;-89
2021/06/03 04:42:58;;;;;;;7.10;5.07;;;19.60;42.30;;;;;;6153089;23;20383;-89
2021/06/03 04:45:24;;;;;;;4.93;4.53;;;19.70;42.00;;;;;;6153742;22;20431;-89
2021/06/03 04:47:50;;;;;;;5.60;5.10;;;19.80;41.80;;;;;;6153223;22;20382;-89
2021/06/03 04:50:18;;;;;;;5.20;4.80;;;19.70;41.60;;;;;;6153641;23;20350;-89
2021/06/03 04:52:44;;;;;;;5.33;4.87;;;19.60;41.80;;;;;;6153230;22;20454;-88
2021/06/03 04:55:15;;;;;;;7.00;6.40;;;19.70;42.00;;;;;;6153823;23;20916;-88
2021/06/03 04:57:41;;;;;;;5.63;5.13;;;19.60;41.90;;;;;;6156140;23;20235;-88
2021/06/03 05:00:11;;;;;;;4.73;4.43;;;19.70;41.90;;;;;;6158864;22;20477;-89
2021/06/03 05:02:51;;;;;;;5.23;4.83;;;19.50;41.50;;;;;;6158706;23;20365;-89
2021/06/03 05:05:17;;;;;;;4.27;3.97;;;19.90;41.90;;;;;;6158166;23;20429;-88
2021/06/03 05:07:46;;;;;;;5.80;5.30;;;19.90;41.60;;;;;;6158317;22;20386;-89
2021/06/03 05:10:13;;;;;;;4.57;4.17;;;19.50;41.10;;;;;;6158178;23;20379;-89
2021/06/03 05:12:39;;;;;;;7.73;5.30;;;20.10;41.40;;;;;;6158252;23;20352;-89
2021/06/03 05:15:07;;;;;;;4.80;4.40;;;20.10;41.30;;;;;;6158232;22;20391;-88
2021/06/03 05:17:35;;;;;;;5.50;5.00;;;20.10;41.20;;;;;;6158474;23;20409;-89
2021/06/03 05:20:02;;;;;;;5.50;5.00;;;20.20;41.20;;;;;;6157784;23;20856;-89
2021/06/03 05:22:39;;;;;;;4.63;4.33;;;19.80;41.00;;;;;;6158356;23;20378;-89
2021/06/03 05:25:11;;;;;;;7.10;6.40;;;20.20;41.80;;;;;;6157764;23;20433;-89
2021/06/03 05:27:38;;;;;;;5.43;5.03;;;20.00;42.40;;;;;;6158479;23;20379;-89
2021/06/03 05:30:07;;;;;;;6.50;6.00;;;20.00;42.70;;;;;;6157768;23;20393;-88
2021/06/03 05:32:34;;;;;;;5.30;4.90;;;20.00;43.10;;;;;;6157585;23;20722;-88
2021/06/03 05:35:00;;;;;;;5.30;4.90;;;19.70;42.70;;;;;;6157744;23;20383;-89
2021/06/03 05:37:26;;;;;;;7.37;5.70;;;20.10;43.00;;;;;;6158010;23;20419;-89
2021/06/03 05:39:51;;;;;;;5.60;5.10;;;20.20;42.70;;;;;;6158801;23;20386;-90
2021/06/03 05:42:18;;;;;;;6.47;5.97;;;20.30;42.50;;;;;;6157407;23;20277;-87
2021/06/03 05:44:44;;;;;;;5.93;5.47;;;20.40;42.20;;;;;;6157640;23;20178;-88
2021/06/03 05:47:09;;;;;;;6.10;5.60;;;20.50;42.00;;;;;;6157497;23;20386;-87
2021/06/03 05:49:35;;;;;;;6.00;5.60;;;20.60;41.90;;;;;;6183708;23;20135;-88
2021/06/03 05:52:03;;;;;;;5.23;4.80;;;20.70;41.70;;;;;;6157661;23;20493;-87
2021/06/03 05:54:30;;;;;;;5.50;5.10;;;20.90;41.50;;;;;;6157481;23;20196;-88
2021/06/03 05:56:57;;;;;;;6.03;5.43;;;21.00;41.10;;;;;;6157529;23;20819;-88
2021/06/03 05:59:23;;;;;;;5.13;4.70;;;21.20;41.10;;;;;;6183917;23;20492;-88
2021/06/03 06:01:49;;;;;;;4.50;4.20;;;21.30;40.50;;;;;;6133459;23;20391;-88
2021/06/03 06:06:50;;;;;;;4.20;3.90;;;22.20;40.30;;;;;;6193469;23;20375;-89
2021/06/03 06:09:17;;;;;;;3.83;3.53;;;23.00;38.60;;;;;;6156677;23;20389;-88
2021/06/03 06:11:44;;;;;;;4.33;3.97;;;23.70;36.60;;;;;;6157191;23;20354;-88
2021/06/03 06:14:10;;;;;;;4.37;4.07;;;24.30;34.80;;;;;;6157056;23;20382;-89
2021/06/03 06:16:37;;;;;;;4.83;4.50;;;24.80;32.80;;;;;;6156627;23;20353;-89
2021/06/03 06:19:04;;;;;;;5.13;4.73;;;25.00;31.80;;;;;;6156621;23;20361;-89
2021/06/03 06:21:31;;;;;;;4.07;3.77;;;25.30;31.60;;;;;;6156403;22;20383;-88
2021/06/03 06:23:57;;;;;;;4.83;4.43;;;25.40;31.40;;;;;;6156783;23;20921;-89
2021/06/03 06:26:25;;;;;;;4.30;3.90;;;25.50;31.20;;;;;;6157233;23;20437;-90
2021/06/03 06:28:51;;;;;;;4.23;3.93;;;25.60;31.20;;;;;;6156882;23;20382;-90
2021/06/03 06:31:18;;;;;;;5.70;4.50;;;25.80;31.00;;;;;;6157386;23;20747;-89
2021/06/03 06:33:47;;;;;;;5.17;4.33;;;26.10;30.90;;;;;;6157256;23;20358;-90
2021/06/03 06:36:13;;;;;;;4.03;3.73;;;26.40;30.10;;;;;;6157157;23;20391;-90
2021/06/03 06:38:39;;;;;;;3.80;3.57;;;26.80;29.80;;;;;;6156730;23;20392;-89
2021/06/03 06:41:06;;;;;;;3.70;3.40;;;27.40;28.90;;;;;;6157465;23;20459;-90
2021/06/03 06:43:33;;;;;;;4.30;3.97;;;28.10;27.60;;;;;;6183345;23;20379;-90
2021/06/03 06:45:59;;;;;;;5.40;4.00;;;28.70;26.20;;;;;;6157050;23;20908;-89
2021/06/03 06:48:33;;;;;;;3.87;3.57;;;29.10;26.00;;;;;;6157634;23;20458;-90
2021/06/03 06:50:59;;;;;;;4.40;4.00;;;29.30;25.10;;;;;;6158287;23;20383;-89
2021/06/03 06:53:28;;;;;;;4.23;3.37;;;29.40;25.00;;;;;;6158567;23;20496;-89
2021/06/03 06:55:54;;;;;;;3.60;3.30;;;29.70;25.40;;;;;;6157673;23;20394;-89
2021/06/03 06:58:20;;;;;;;3.67;3.37;;;30.00;24.70;;;;;;6153386;23;20504;-89
2021/06/03 07:00:46;;;;;;;3.80;3.50;;;30.40;24.40;;;;;;6155528;23;20383;-89
2021/06/03 07:03:13;;;;;;;4.20;3.87;;;30.80;23.90;;;;;;6151137;23;20382;-89
2021/06/03 07:05:42;;;;;;;4.10;3.80;;;31.30;23.20;;;;;;6151960;23;20511;-89
2021/06/03 07:08:08;;;;;;;3.40;3.20;;;31.40;22.40;;;;;;6151881;23;20376;-89
2021/06/03 07:10:34;;;;;;;4.03;3.73;;;31.70;22.60;;;;;;6152813;23;20380;-89
2021/06/03 07:13:00;;;;;;;4.10;3.80;;;32.10;21.90;;;;;;6153041;23;20377;-89
2021/06/03 07:15:26;;;;;;;3.60;3.30;;;32.60;21.10;;;;;;6152967;23;20511;-88
2021/06/03 07:17:53;;;;;;;6.37;3.77;;;33.00;20.20;;;;;;6154705;22;20382;-89
2021/06/03 07:20:19;;;;;;;3.97;3.20;;;33.20;19.40;;;;;;6153047;23;20438;-89
2021/06/03 07:22:54;;;;;;;3.40;3.20;;;33.20;19.60;;;;;;6153321;23;20817;-89
2021/06/03 07:25:22;;;;;;;2.80;2.60;;;33.40;19.30;;;;;;6153067;23;20452;-89
2021/06/03 07:27:50;;;;;;;3.10;2.77;;;33.40;19.50;;;;;;6153173;23;20377;-90
2021/06/03 07:30:18;;;;;;;2.83;2.47;;;33.60;19.70;;;;;;6153457;23;20869;-91
2021/06/03 07:32:52;;;;;;;3.17;2.87;;;33.90;19.30;;;;;;6156913;23;20380;-89
2021/06/03 07:35:19;;;;;;;3.30;3.00;;;34.20;18.80;;;;;;6154692;23;20385;-92
2021/06/03 07:41:08;;;;;;;2.40;2.20;;;34.30;18.50;;;;;;6155763;23;20430;-92
2021/06/03 07:43:42;;;;;;;2.63;2.43;;;34.60;18.50;;;;;;6155958;23;20384;-92
2021/06/03 07:46:07;;;;;;;2.70;2.40;;;34.80;17.90;;;;;;6153336;23;20422;-90
2021/06/03 07:48:34;;;;;;;2.80;2.60;;;35.00;18.10;;;;;;6153649;23;20381;-87
2021/06/03 07:51:00;;;;;;;2.60;2.40;;;35.20;17.30;;;;;;6153438;23;20158;-90
2021/06/03 07:53:44;;;;;;;2.60;2.40;;;35.20;17.30;;;;;;6153488;23;20450;-89
2021/06/03 07:56:10;;;;;;;2.40;2.30;;;35.30;17.40;;;;;;6152991;23;20155;-89
2021/06/03 08:02:12;;;;;;;3.00;2.70;;;34.30;18.20;;;;;;6185119;23;20221;-90
2021/06/03 08:04:38;;;;;;;3.10;2.90;;;33.70;18.60;;;;;;6158302;23;20428;-89
2021/06/03 08:07:05;;;;;;;4.27;3.93;;;33.10;19.40;;;;;;6157283;23;20833;-90
2021/06/03 08:09:30;;;;;;;2.97;2.77;;;32.60;20.00;;;;;;6158258;23;20570;-92
2021/06/03 08:12:05;;;;;;;4.67;2.93;;;32.20;20.60;;;;;;6158162;23;20438;-91
2021/06/03 08:14:30;;;;;;;3.17;2.97;;;31.70;21.80;;;;;;6158267;22;20157;-91
2021/06/03 08:20:25;;;;;;;3.40;3.20;;;31.50;22.80;;;;;;6181933;23;20203;-89
2021/06/03 08:22:51;;;;;;;3.10;2.80;;;31.60;22.60;;;;;;6157790;22;20844;-88
2021/06/03 08:25:19;;;;;;;2.60;2.40;;;31.60;22.30;;;;;;6157191;23;20419;-89
2021/06/03 08:27:45;;;;;;;3.30;2.90;;;31.40;23.00;;;;;;6157068;23;20822;-88
2021/06/03 08:30:13;;;;;;;3.13;2.67;;;30.90;22.70;;;;;;6156708;23;20379;-89
2021/06/03 08:32:41;;;;;;;3.00;2.30;;;30.50;23.90;;;;;;6157208;22;20377;-88
2021/06/03 08:35:14;;;;;;;3.27;2.97;;;30.10;23.60;;;;;;6157967;23;20897;-89
2021/06/03 08:37:41;;;;;;;2.80;1.90;;;30.00;24.80;;;;;;6166053;23;20382;-93
2021/06/03 08:43:32;;;;;;;6.17;2.70;;;30.10;24.50;;;;;;6201509;23;20333;-93
2021/06/03 08:46:14;;;;;;;3.93;2.97;;;29.80;24.30;;;;;;6172543;23;20481;-93
2021/06/03 08:48:46;;;;;;;2.87;2.60;;;29.90;25.50;;;;;;6172481;23;20413;-94
2021/06/03 08:51:13;;;;;;;2.23;2.03;;;30.00;24.40;;;;;;6176633;23;20355;-93
2021/06/03 08:53:39;;;;;;;2.90;2.53;;;30.10;24.20;;;;;;6172854;23;20386;-91
2021/06/03 08:56:20;;;;;;;2.47;2.27;;;30.00;23.50;;;;;;6171731;23;20466;-92
2021/06/03 09:02:28;;;;;;;3.20;2.47;;;30.00;23.50;;;;;;6197330;23;20337;-92
2021/06/03 09:04:53;;;;;;;2.50;2.30;;;29.50;24.30;;;;;;6171519;22;20446;-92
2021/06/03 09:08:06;;;;;;;3.53;2.37;;;29.00;25.30;;;;;;6169433;23;20382;-93
2021/06/03 09:10:33;;;;;;;2.23;2.03;;;29.40;25.90;;;;;;6169525;23;20502;-93
2021/06/03 09:13:05;;;;;;;2.90;2.70;;;29.00;25.90;;;;;;6169836;23;20707;-93
2021/06/03 09:15:34;;;;;;;2.93;2.20;;;29.00;25.60;;;;;;6173352;23;20373;-94
2021/06/03 09:18:02;;;;;;;3.37;2.87;;;28.80;26.70;;;;;;6164065;23;20379;-93
2021/06/03 09:20:28;;;;;;;2.27;2.17;;;28.80;26.30;;;;;;6174375;23;20383;-93
2021/06/03 09:23:01;;;;;;;3.27;2.23;;;28.80;26.10;;;;;;6162993;23;20388;-94
2021/06/03 09:29:00;;;;;;;4.50;2.60;;;28.70;25.90;;;;;;6209531;23;20378;-92
2021/06/03 09:31:40;;;;;;;2.90;2.10;;;28.40;26.60;;;;;;6173989;23;20379;-93
2021/06/03 09:34:11;;;;;;;3.50;2.50;;;28.20;26.70;;;;;;6167575;23;20710;-91
2021/06/03 09:37:09;;;;;;;2.80;2.00;;;28.30;27.40;;;;;;6168671;23;20406;-93
2021/06/03 09:40:19;;;;;;;2.23;2.03;;;28.50;26.30;;;;;;6173514;23;20396;-94
2021/06/03 09:43:11;;;;;;;2.37;2.17;;;28.50;25.80;;;;;;6203063;22;20366;-91
2021/06/03 09:46:02;;;;;;;2.70;2.50;;;28.40;25.90;;;;;;6161696;23;20436;-89
2021/06/03 09:48:42;;;;;;;2.47;2.00;;;28.50;26.10;;;;;;6156406;23;20441;-88
2021/06/03 09:51:21;;;;;;;3.37;2.67;;;28.60;26.70;;;;;;6157680;23;20379;-89
2021/06/03 09:54:00;;;;;;;3.60;2.50;;;28.70;25.60;;;;;;6156485;23;20384;-89
2021/06/03 09:56:30;;;;;;;2.70;2.23;;;28.60;26.10;;;;;;6156403;23;20858;-89
2021/06/03 09:59:00;;;;;;;3.03;2.17;;;28.80;25.50;;;;;;6151716;23;20433;-89
2021/06/03 10:01:43;;;;;;;2.67;2.30;;;28.80;25.80;;;;;;6151594;23;20413;-90
2021/06/03 10:04:11;;;;;;;3.83;2.20;;;28.80;25.50;;;;;;6152079;23;20409;-89
2021/06/03 10:06:55;;;;;;;2.30;2.10;;;28.90;25.50;;;;;;6151979;22;20428;-90
2021/06/03 10:09:48;;;;;;;3.53;2.43;;;29.00;26.50;;;;;;6151880;22;20382;-89
2021/06/03 10:12:48;;;;;;;2.30;2.17;;;29.20;25.90;;;;;;6151661;22;20386;-89
2021/06/03 10:15:22;;;;;;;3.27;2.43;;;29.30;25.40;;;;;;6151363;23;20379;-89
2021/06/03 10:17:52;;;;;;;2.67;2.47;;;29.40;24.90;;;;;;6157301;23;20441;-92
2021/06/03 10:33:47;;;;;;;3.70;2.33;;;29.70;26.40;;;;;;6154561;23;20407;-90
2021/06/03 10:36:13;;;;;;;2.70;2.50;;;30.00;26.20;;;;;;6148442;22;20466;-88
2021/06/03 10:38:39;;;;;;;2.17;2.07;;;30.20;25.80;;;;;;6149605;23;20164;-89
2021/06/03 10:41:08;;;;;;;2.70;2.50;;;30.40;24.10;;;;;;6151286;23;20838;-89
2021/06/03 10:43:36;;;;;;;2.53;2.33;;;30.50;23.80;;;;;;6152149;23;20575;-87
2021/06/03 10:46:05;;;;;;;2.67;2.47;;;30.40;23.70;;;;;;6153333;22;20412;-89
2021/06/03 10:48:31;;;;;;;4.10;2.40;;;30.40;23.70;;;;;;6153826;23;20381;-89
2021/06/03 10:51:03;;;;;;;3.07;2.80;;;30.40;23.90;;;;;;6153145;23;20416;-89
2021/06/03 10:53:30;;;;;;;2.60;2.40;;;30.40;23.70;;;;;;6152925;22;20424;-90
2021/06/03 10:56:18;;;;;;;2.47;2.27;;;30.50;24.50;;;;;;6153032;23;20470;-90
2021/06/03 10:58:44;;;;;;;2.90;2.40;;;30.50;23.60;;;;;;6152872;23;20371;-89
2021/06/03 11:01:18;;;;;;;2.50;2.30;;;30.40;23.50;;;;;;6153076;23;20440;-89
2021/06/03 11:03:54;;;;;;;2.00;1.90;;;30.20;23.60;;;;;;6152245;23;20187;-89
2021/06/03 11:06:23;;;;;;;2.73;2.40;;;30.20;24.00;;;;;;6152914;23;20438;-89
2021/06/03 11:09:04;;;;;;;2.57;2.17;;;30.00;24.70;;;;;;6152946;23;20380;-89
2021/06/03 11:11:37;;;;;;;2.33;2.20;;;29.90;24.80;;;;;;6152910;23;20776;-90
2021/06/03 11:14:16;;;;;;;2.30;2.10;;;29.70;25.10;;;;;;6152015;23;20399;-90
2021/06/03 11:16:48;;;;;;;2.50;2.13;;;29.80;25.30;;;;;;6152647;22;20386;-89
2021/06/03 11:19:16;;;;;;;2.73;2.37;;;29.80;25.10;;;;;;6152741;22;20379;-89
2021/06/03 11:21:43;;;;;;;3.70;2.40;;;29.80;25.20;;;;;;6153028;23;20840;-89
2021/06/03 11:24:27;;;;;;;3.13;2.53;;;30.00;24.80;;;;;;6153038;23;20462;-90
2021/06/03 11:26:55;;;;;;;3.50;1.90;;;30.10;23.90;;;;;;6152822;23;20479;-89
2021/06/03 11:29:27;;;;;;;3.43;2.63;;;30.10;24.30;;;;;;6152176;23;20380;-89
2021/06/03 11:32:15;;;;;;;2.40;2.30;;;30.30;24.10;;;;;;6152145;23;20379;-89
2021/06/03 11:34:40;;;;;;;2.30;2.17;;;30.20;24.30;;;;;;6152451;23;20363;-89
2021/06/03 11:37:17;;;;;;;2.37;2.17;;;30.00;25.20;;;;;;6152042;23;20438;-88
2021/06/03 11:39:42;;;;;;;3.23;2.77;;;29.90;25.20;;;;;;6152631;23;20208;-90
2021/06/03 11:42:25;;;;;;;2.00;1.90;;;29.90;25.50;;;;;;6152506;23;20382;-89
2021/06/03 11:45:04;;;;;;;2.30;2.10;;;29.90;26.20;;;;;;6152730;23;20155;-90
2021/06/03 11:47:35;;;;;;;3.00;2.70;;;29.80;26.00;;;;;;6152902;23;20394;-89
2021/06/03 11:50:02;;;;;;;2.70;2.20;;;29.80;26.00;;;;;;6152941;23;20442;-89
2021/06/03 11:52:28;;;;;;;2.57;2.33;;;29.80;26.70;;;;;;6152850;22;20407;-89
2021/06/03 11:55:00;;;;;;;2.43;2.23;;;29.70;26.60;;;;;;6152469;23;20859;-89
2021/06/03 11:57:29;;;;;;;2.23;2.00;;;29.90;27.00;;;;;;6153287;23;20203;-90
2021/06/03 12:00:01;;;;;;;2.70;2.50;;;29.90;26.40;;;;;;6152590;22;20386;-88
2021/06/03 12:02:41;;;;;;;2.90;2.30;;;29.90;26.40;;;;;;6152380;23;20387;-88
2021/06/03 12:05:13;;;;;;;3.03;2.47;;;30.00;25.70;;;;;;6152124;22;20437;-88
2021/06/03 12:07:55;;;;;;;2.50;2.30;;;30.10;25.10;;;;;;6152189;23;20448;-88
2021/06/03 12:10:41;;;;;;;2.87;2.40;;;30.10;24.90;;;;;;6152076;22;20453;-89
2021/06/03 12:13:17;;;;;;;2.13;2.00;;;30.20;24.70;;;;;;6153544;23;20360;-89
2021/06/03 12:15:43;;;;;;;2.43;2.23;;;30.10;25.00;;;;;;6154229;23;20379;-89
2021/06/03 12:18:09;;;;;;;2.17;2.00;;;30.00;25.40;;;;;;6153261;23;20382;-89
2021/06/03 12:20:41;;;;;;;3.23;2.37;;;29.90;25.70;;;;;;6154335;23;20232;-89
2021/06/03 12:23:12;;;;;;;3.23;2.67;;;30.00;26.20;;;;;;6155423;23;20178;-90
2021/06/03 12:25:43;;;;;;;2.80;2.10;;;30.00;25.40;;;;;;6155214;23;20425;-89
2021/06/03 12:28:11;;;;;;;3.30;2.23;;;30.10;25.90;;;;;;6156316;23;20382;-89
2021/06/03 12:30:40;;;;;;;2.57;2.37;;;30.30;25.60;;;;;;6157471;22;20431;-90
2021/06/03 12:33:07;;;;;;;3.07;2.33;;;30.60;25.50;;;;;;6153770;23;20741;-90
2021/06/03 12:35:38;;;;;;;5.00;2.37;;;30.80;25.60;;;;;;6156247;23;20414;-90
2021/06/03 12:38:06;;;;;;;2.37;2.17;;;31.10;24.10;;;;;;6156574;23;20442;-90
2021/06/03 12:40:32;;;;;;;2.57;2.30;;;31.20;24.10;;;;;;6155895;23;20738;-89
2021/06/03 12:43:05;;;;;;;3.13;1.80;;;31.20;24.80;;;;;;6154396;23;20464;-89
2021/06/03 12:45:37;;;;;;;3.80;2.27;;;31.40;25.10;;;;;;6152591;22;20423;-90
2021/06/03 12:48:05;;;;;;;2.27;2.07;;;31.60;25.10;;;;;;6155426;23;20391;-90
2021/06/03 12:50:35;;;;;;;2.47;2.27;;;31.10;24.10;;;;;;6155792;23;20449;-89
2021/06/03 12:53:08;;;;;;;2.30;2.10;;;30.90;25.10;;;;;;6156554;23;20428;-89
2021/06/03 12:55:35;;;;;;;3.10;1.83;;;30.80;25.20;;;;;;6158534;22;20394;-90
2021/06/03 12:58:06;;;;;;;2.07;1.87;;;30.40;25.10;;;;;;6157321;23;20388;-90
2021/06/03 13:00:33;;;;;;;2.40;2.20;;;30.00;27.00;;;;;;6157384;23;20395;-90
2021/06/03 13:03:23;;;;;;;2.03;1.90;;;29.60;27.70;;;;;;6158208;23;20382;-90
2021/06/03 13:06:10;;;;;;;2.37;2.17;;;29.20;27.70;;;;;;6156881;23;20933;-89
2021/06/03 13:08:47;;;;;;;2.33;2.13;;;28.90;28.90;;;;;;6158610;23;20389;-90
2021/06/03 13:11:44;;;;;;;2.03;1.90;;;28.80;28.60;;;;;;6159755;23;20859;-90
2021/06/03 13:14:20;;;;;;;2.60;2.10;;;28.70;29.30;;;;;;6132612;23;20389;-89
2021/06/03 13:16:49;;;;;;;2.37;1.77;;;28.90;29.60;;;;;;6157746;23;20379;-89
2021/06/03 13:19:16;;;;;;;2.00;1.80;;;29.20;29.80;;;;;;6155358;23;20394;-91
2021/06/03 13:21:43;;;;;;;2.67;2.47;;;29.30;28.90;;;;;;6154425;23;20390;-89
2021/06/03 13:24:24;;;;;;;2.87;2.60;;;29.40;29.00;;;;;;6156155;23;20365;-90
2021/06/03 13:27:16;;;;;;;4.77;2.13;;;29.50;29.70;;;;;;6163236;23;20399;-89
2021/06/03 13:29:47;;;;;;;2.60;2.40;;;29.40;30.20;;;;;;6155128;23;20751;-89
2021/06/03 13:32:14;;;;;;;3.27;2.47;;;29.30;30.10;;;;;;6153142;23;20436;-89
2021/06/03 13:34:45;;;;;;;2.87;2.57;;;29.20;30.30;;;;;;6154585;22;20413;-89
2021/06/03 13:37:27;;;;;;;2.13;2.00;;;29.10;29.90;;;;;;6156240;23;20403;-91
2021/06/03 13:39:57;;;;;;;2.73;2.20;;;29.20;30.20;;;;;;6153649;23;20390;-89
2021/06/03 13:42:29;;;;;;;2.83;2.10;;;29.30;29.90;;;;;;6155830;23;20371;-89
2021/06/03 13:45:04;;;;;;;2.90;2.37;;;29.20;28.60;;;;;;6155039;23;20477;-90
2021/06/03 13:47:46;;;;;;;5.93;3.00;;;29.30;28.60;;;;;;6156750;23;20408;-90